sensor_id;sensor_type;location;lat;lon;timestamp;pressure;altitude;pressure_sealevel;temperature;humidity
48790;BME280;41718;51.980;5.734;2023-04-15T00:01:57;100659.84;;;8.05;100.00
48790;BME280;41718;51.980;5.734;2023-04-15T00:07:00;100666.16;;;7.80;100.00
48790;BME280;41718;51.980;5.734;2023-04-15T00:12:03;100672.38;;;5.96;100.00
48790;BME280;41718;51.980;5.734;2023-04-15T00:17:05;100674.66;;;5.61;100.00
48790;BME280;41718;51.980;5.734;2023-04-15T00:22:07;100680.28;;;5.49;100.00
48790;BME280;41718;51.980;5.734;2023-04-15T00:27:09;100677.06;;;5.29;100.00
48790;BME280;41718;51.980;5.734;2023-04-15T00:32:11;100686.06;;;5.17;100.00
48790;BME280;41718;51.980;5.734;2023-04-15T00:37:13;100678.81;;;5.05;100.00
48790;BME280;41718;51.980;5.734;2023-04-15T00:42:14;100677.56;;;4.94;100.00
48790;BME280;41718;51.980;5.734;2023-04-15T00:47:17;100690.88;;;4.84;100.00
48790;BME280;41718;51.980;5.734;2023-04-15T00:52:19;100690.44;;;4.71;100.00
48790;BME280;41718;51.980;5.734;2023-04-15T00:57:21;100693.66;;;4.66;100.00
48790;BME280;41718;51.980;5.734;2023-04-15T01:02:23;100694.16;;;4.56;100.00
48790;BME280;41718;51.980;5.734;2023-04-15T01:07:25;100697.53;;;4.55;100.00
48790;BME280;41718;51.980;5.734;2023-04-15T01:12:26;100702.34;;;4.47;100.00
48790;BME280;41718;51.980;5.734;2023-04-15T01:17:28;100706.59;;;4.46;100.00
48790;BME280;41718;51.980;5.734;2023-04-15T01:22:32;100707.78;;;4.55;100.00
48790;BME280;41718;51.980;5.734;2023-04-15T01:27:35;100710.97;;;4.49;100.00
48790;BME280;41718;51.980;5.734;2023-04-15T01:32:38;100707.25;;;4.41;100.00
48790;BME280;41718;51.980;5.734;2023-04-15T01:37:39;100699.38;;;4.36;100.00
48790;BME280;41718;51.980;5.734;2023-04-15T01:42:41;100704.00;;;4.45;100.00
48790;BME280;41718;51.980;5.734;2023-04-15T01:47:43;100710.13;;;4.48;100.00
48790;BME280;41718;51.980;5.734;2023-04-15T01:52:45;100706.50;;;4.43;100.00
48790;BME280;41718;51.980;5.734;2023-04-15T01:57:47;100708.94;;;4.40;100.00
48790;BME280;41718;51.980;5.734;2023-04-15T02:02:49;100702.66;;;4.55;100.00
48790;BME280;41718;51.980;5.734;2023-04-15T02:07:51;100707.38;;;4.44;100.00
48790;BME280;41718;51.980;5.734;2023-04-15T02:12:52;100709.59;;;4.35;100.00
48790;BME280;41718;51.980;5.734;2023-04-15T02:17:54;100714.66;;;4.11;100.00
48790;BME280;41718;51.980;5.734;2023-04-15T02:22:56;100723.69;;;4.03;100.00
48790;BME280;41718;51.980;5.734;2023-04-15T02:27:57;100722.44;;;3.91;100.00
48790;BME280;41718;51.980;5.734;2023-04-15T02:32:59;100724.56;;;3.81;100.00
48790;BME280;41718;51.980;5.734;2023-04-15T02:38:01;100734.03;;;3.83;100.00
48790;BME280;41718;51.980;5.734;2023-04-15T02:43:03;100737.84;;;3.93;100.00
48790;BME280;41718;51.980;5.734;2023-04-15T02:48:06;100746.28;;;4.13;100.00
48790;BME280;41718;51.980;5.734;2023-04-15T02:53:08;100755.97;;;4.20;100.00
48790;BME280;41718;51.980;5.734;2023-04-15T02:58:09;100751.47;;;4.37;100.00
48790;BME280;41718;51.980;5.734;2023-04-15T03:03:11;100756.91;;;4.44;100.00
48790;BME280;41718;51.980;5.734;2023-04-15T03:08:15;100754.56;;;4.28;100.00
48790;BME280;41718;51.980;5.734;2023-04-15T03:13:17;100762.00;;;4.22;100.00
48790;BME280;41718;51.980;5.734;2023-04-15T03:18:19;100756.91;;;4.22;100.00
48790;BME280;41718;51.980;5.734;2023-04-15T03:23:20;100765.41;;;4.21;100.00
48790;BME280;41718;51.980;5.734;2023-04-15T03:28:22;100779.06;;;4.21;100.00
48790;BME280;41718;51.980;5.734;2023-04-15T03:33:23;100786.13;;;4.27;100.00
48790;BME280;41718;51.980;5.734;2023-04-15T03:38:25;100780.31;;;4.31;100.00
48790;BME280;41718;51.980;5.734;2023-04-15T03:43:27;100789.25;;;4.20;100.00
48790;BME280;41718;51.980;5.734;2023-04-15T03:48:28;100790.22;;;4.23;100.00
48790;BME280;41718;51.980;5.734;2023-04-15T03:53:30;100795.56;;;4.07;100.00
48790;BME280;41718;51.980;5.734;2023-04-15T03:58:31;100799.75;;;4.05;100.00
48790;BME280;41718;51.980;5.734;2023-04-15T04:03:33;100802.16;;;4.02;100.00
48790;BME280;41718;51.980;5.734;2023-04-15T04:08:34;100802.97;;;4.01;100.00
48790;BME280;41718;51.980;5.734;2023-04-15T04:13:36;100817.66;;;4.05;100.00
48790;BME280;41718;51.980;5.734;2023-04-15T04:18:37;100820.28;;;4.07;100.00
48790;BME280;41718;51.980;5.734;2023-04-15T04:23:39;100828.53;;;3.99;100.00
48790;BME280;41718;51.980;5.734;2023-04-15T04:28:40;100839.50;;;3.76;100.00
48790;BME280;41718;51.980;5.734;2023-04-15T04:33:42;100841.81;;;3.70;100.00
48790;BME280;41718;51.980;5.734;2023-04-15T04:38:43;100851.72;;;3.83;100.00
48790;BME280;41718;51.980;5.734;2023-04-15T04:43:45;100856.16;;;3.87;100.00
48790;BME280;41718;51.980;5.734;2023-04-15T04:48:46;100854.78;;;3.95;100.00
48790;BME280;41718;51.980;5.734;2023-04-15T04:53:48;100867.28;;;3.88;100.00
48790;BME280;41718;51.980;5.734;2023-04-15T04:58:49;100877.25;;;3.82;100.00
48790;BME280;41718;51.980;5.734;2023-04-15T05:03:51;100878.13;;;3.82;100.00
48790;BME280;41718;51.980;5.734;2023-04-15T05:08:53;100893.38;;;4.00;100.00
48790;BME280;41718;51.980;5.734;2023-04-15T05:13:54;100900.28;;;4.03;100.00
48790;BME280;41718;51.980;5.734;2023-04-15T05:18:56;100906.44;;;4.06;100.00
48790;BME280;41718;51.980;5.734;2023-04-15T05:23:57;100921.69;;;4.03;100.00
48790;BME280;41718;51.980;5.734;2023-04-15T05:28:59;100926.03;;;4.06;100.00
48790;BME280;41718;51.980;5.734;2023-04-15T05:34:01;100940.22;;;4.18;100.00
48790;BME280;41718;51.980;5.734;2023-04-15T05:39:03;100948.50;;;4.32;100.00
48790;BME280;41718;51.980;5.734;2023-04-15T05:44:05;100951.22;;;4.58;100.00
48790;BME280;41718;51.980;5.734;2023-04-15T05:49:06;100953.75;;;4.77;100.00
48790;BME280;41718;51.980;5.734;2023-04-15T05:54:08;100947.19;;;5.06;100.00
48790;BME280;41718;51.980;5.734;2023-04-15T05:59:09;100956.94;;;5.39;100.00
48790;BME280;41718;51.980;5.734;2023-04-15T06:04:11;100958.97;;;5.70;100.00
48790;BME280;41718;51.980;5.734;2023-04-15T06:09:13;100969.16;;;6.15;100.00
48790;BME280;41718;51.980;5.734;2023-04-15T06:14:14;100980.47;;;6.20;100.00
48790;BME280;41718;51.980;5.734;2023-04-15T06:19:16;100989.56;;;6.35;100.00
48790;BME280;41718;51.980;5.734;2023-04-15T06:24:18;101001.78;;;6.43;100.00
48790;BME280;41718;51.980;5.734;2023-04-15T06:29:20;101004.66;;;6.52;100.00
48790;BME280;41718;51.980;5.734;2023-04-15T06:34:21;101014.31;;;6.84;100.00
48790;BME280;41718;51.980;5.734;2023-04-15T06:39:22;101022.41;;;6.97;100.00
48790;BME280;41718;51.980;5.734;2023-04-15T06:44:24;101026.41;;;7.14;100.00
48790;BME280;41718;51.980;5.734;2023-04-15T06:49:26;101036.13;;;7.23;100.00
48790;BME280;41718;51.980;5.734;2023-04-15T06:54:27;101044.03;;;7.29;100.00
48790;BME280;41718;51.980;5.734;2023-04-15T06:59:28;101054.00;;;7.47;100.00
48790;BME280;41718;51.980;5.734;2023-04-15T07:04:30;101050.69;;;7.78;100.00
48790;BME280;41718;51.980;5.734;2023-04-15T07:09:32;101057.75;;;8.15;100.00
48790;BME280;41718;51.980;5.734;2023-04-15T07:14:34;101066.34;;;8.15;100.00
48790;BME280;41718;51.980;5.734;2023-04-15T07:19:36;101067.22;;;8.16;100.00
48790;BME280;41718;51.980;5.734;2023-04-15T07:24:38;101065.47;;;8.15;100.00
48790;BME280;41718;51.980;5.734;2023-04-15T07:29:39;101071.47;;;8.14;100.00
48790;BME280;41718;51.980;5.734;2023-04-15T07:34:41;101079.19;;;8.14;100.00
48790;BME280;41718;51.980;5.734;2023-04-15T07:39:43;101085.41;;;8.22;100.00
48790;BME280;41718;51.980;5.734;2023-04-15T07:44:44;101087.72;;;8.11;100.00
48790;BME280;41718;51.980;5.734;2023-04-15T07:49:46;101099.84;;;8.15;100.00
48790;BME280;41718;51.980;5.734;2023-04-15T07:54:47;101102.56;;;8.20;100.00
48790;BME280;41718;51.980;5.734;2023-04-15T07:59:49;101112.72;;;8.15;100.00
48790;BME280;41718;51.980;5.734;2023-04-15T08:04:50;101108.53;;;8.19;100.00
48790;BME280;41718;51.980;5.734;2023-04-15T08:09:53;101112.91;;;8.21;100.00
48790;BME280;41718;51.980;5.734;2023-04-15T08:14:54;101110.13;;;8.44;100.00
48790;BME280;41718;51.980;5.734;2023-04-15T08:19:57;101115.25;;;8.42;100.00
48790;BME280;41718;51.980;5.734;2023-04-15T08:24:59;101117.16;;;8.49;100.00
48790;BME280;41718;51.980;5.734;2023-04-15T08:30:00;101119.00;;;8.85;100.00
48790;BME280;41718;51.980;5.734;2023-04-15T08:35:05;101117.06;;;9.11;100.00
48790;BME280;41718;51.980;5.734;2023-04-15T08:40:07;101123.31;;;9.19;100.00
48790;BME280;41718;51.980;5.734;2023-04-15T08:45:10;101124.44;;;9.31;100.00
48790;BME280;41718;51.980;5.734;2023-04-15T08:50:11;101127.31;;;9.43;100.00
48790;BME280;41718;51.980;5.734;2023-04-15T08:55:14;101135.41;;;9.58;100.00
48790;BME280;41718;51.980;5.734;2023-04-15T09:00:16;101135.91;;;9.79;100.00
48790;BME280;41718;51.980;5.734;2023-04-15T09:05:19;101136.78;;;9.80;100.00
48790;BME280;41718;51.980;5.734;2023-04-15T09:10:21;101138.00;;;9.96;100.00
48790;BME280;41718;51.980;5.734;2023-04-15T09:15:27;101140.88;;;10.09;100.00
48790;BME280;41718;51.980;5.734;2023-04-15T09:20:30;101147.19;;;10.22;100.00
48790;BME280;41718;51.980;5.734;2023-04-15T09:25:40;101147.84;;;10.53;100.00
48790;BME280;41718;51.980;5.734;2023-04-15T09:30:44;101151.53;;;10.66;100.00
48790;BME280;41718;51.980;5.734;2023-04-15T09:36:01;101158.31;;;11.06;100.00
48790;BME280;41718;51.980;5.734;2023-04-15T09:41:16;101167.69;;;10.98;100.00
48790;BME280;41718;51.980;5.734;2023-04-15T09:46:19;101166.06;;;11.03;100.00
48790;BME280;41718;51.980;5.734;2023-04-15T09:51:33;101165.56;;;11.24;100.00
48790;BME280;41718;51.980;5.734;2023-04-15T09:56:37;101174.53;;;11.46;100.00
48790;BME280;41718;51.980;5.734;2023-04-15T10:01:41;101173.72;;;11.47;100.00
48790;BME280;41718;51.980;5.734;2023-04-15T10:06:43;101172.97;;;11.55;100.00
48790;BME280;41718;51.980;5.734;2023-04-15T10:11:44;101182.59;;;11.62;100.00
48790;BME280;41718;51.980;5.734;2023-04-15T10:16:46;101182.50;;;12.12;100.00
48790;BME280;41718;51.980;5.734;2023-04-15T10:21:50;101179.66;;;11.94;100.00
48790;BME280;41718;51.980;5.734;2023-04-15T10:26:52;101189.56;;;12.21;100.00
48790;BME280;41718;51.980;5.734;2023-04-15T10:31:55;101193.72;;;12.77;100.00
48790;BME280;41718;51.980;5.734;2023-04-15T10:37:00;101183.75;;;12.42;100.00
48790;BME280;41718;51.980;5.734;2023-04-15T10:42:18;101197.34;;;12.21;100.00
48790;BME280;41718;51.980;5.734;2023-04-15T10:47:20;101189.22;;;12.62;100.00
48790;BME280;41718;51.980;5.734;2023-04-15T10:52:27;101203.56;;;13.05;100.00
48790;BME280;41718;51.980;5.734;2023-04-15T10:57:36;101211.59;;;13.26;100.00
48790;BME280;41718;51.980;5.734;2023-04-15T11:02:51;101223.13;;;12.76;100.00
48790;BME280;41718;51.980;5.734;2023-04-15T11:07:56;101215.63;;;13.00;100.00
48790;BME280;41718;51.980;5.734;2023-04-15T11:13:01;101220.81;;;13.00;100.00
48790;BME280;41718;51.980;5.734;2023-04-15T11:18:13;101222.19;;;13.46;100.00
48790;BME280;41718;51.980;5.734;2023-04-15T11:23:18;101224.69;;;13.37;100.00
48790;BME280;41718;51.980;5.734;2023-04-15T11:28:19;101235.22;;;12.73;100.00
48790;BME280;41718;51.980;5.734;2023-04-15T11:33:24;101239.75;;;12.91;100.00
48790;BME280;41718;51.980;5.734;2023-04-15T11:38:30;101240.47;;;13.60;100.00
48790;BME280;41718;51.980;5.734;2023-04-15T11:43:32;101235.94;;;13.33;100.00
48790;BME280;41718;51.980;5.734;2023-04-15T11:48:35;101247.34;;;13.53;100.00
48790;BME280;41718;51.980;5.734;2023-04-15T11:58:47;101254.38;;;13.62;100.00
48790;BME280;41718;51.980;5.734;2023-04-15T12:03:50;101247.63;;;13.84;100.00
48790;BME280;41718;51.980;5.734;2023-04-15T12:14:06;101270.84;;;13.64;100.00
48790;BME280;41718;51.980;5.734;2023-04-15T12:19:11;101262.47;;;14.00;100.00
48790;BME280;41718;51.980;5.734;2023-04-15T12:24:13;101276.13;;;13.72;100.00
48790;BME280;41718;51.980;5.734;2023-04-15T12:29:16;101280.53;;;13.81;100.00
48790;BME280;41718;51.980;5.734;2023-04-15T12:34:43;101294.25;;;13.66;100.00
48790;BME280;41718;51.980;5.734;2023-04-15T12:39:47;101297.81;;;13.74;100.00
48790;BME280;41718;51.980;5.734;2023-04-15T12:44:51;101308.34;;;13.86;100.00
48790;BME280;41718;51.980;5.734;2023-04-15T12:49:53;101328.81;;;13.51;100.00
48790;BME280;41718;51.980;5.734;2023-04-15T12:54:55;101319.03;;;13.29;100.00
48790;BME280;41718;51.980;5.734;2023-04-15T12:59:56;101337.16;;;13.24;100.00
48790;BME280;41718;51.980;5.734;2023-04-15T13:04:58;101335.13;;;13.77;100.00
48790;BME280;41718;51.980;5.734;2023-04-15T13:09:59;101357.09;;;13.26;100.00
48790;BME280;41718;51.980;5.734;2023-04-15T13:15:03;101350.78;;;13.82;100.00
48790;BME280;41718;51.980;5.734;2023-04-15T13:20:09;101356.53;;;13.53;100.00
48790;BME280;41718;51.980;5.734;2023-04-15T13:25:11;101368.22;;;13.18;100.00
48790;BME280;41718;51.980;5.734;2023-04-15T13:30:12;101365.50;;;13.10;100.00
48790;BME280;41718;51.980;5.734;2023-04-15T13:35:14;101380.22;;;13.07;100.00
48790;BME280;41718;51.980;5.734;2023-04-15T13:40:15;101375.88;;;13.06;100.00
48790;BME280;41718;51.980;5.734;2023-04-15T13:45:17;101380.44;;;13.22;100.00
48790;BME280;41718;51.980;5.734;2023-04-15T13:50:22;101397.03;;;12.71;100.00
48790;BME280;41718;51.980;5.734;2023-04-15T13:55:23;101399.97;;;12.39;100.00
48790;BME280;41718;51.980;5.734;2023-04-15T14:00:27;101409.88;;;12.63;100.00
48790;BME280;41718;51.980;5.734;2023-04-15T14:05:28;101420.94;;;12.53;100.00
48790;BME280;41718;51.980;5.734;2023-04-15T14:10:30;101432.38;;;12.13;100.00
48790;BME280;41718;51.980;5.734;2023-04-15T14:15:32;101444.13;;;11.92;100.00
48790;BME280;41718;51.980;5.734;2023-04-15T14:20:33;101450.28;;;11.99;100.00
48790;BME280;41718;51.980;5.734;2023-04-15T14:25:35;101457.56;;;11.75;100.00
48790;BME280;41718;51.980;5.734;2023-04-15T14:30:36;101463.66;;;11.78;100.00
48790;BME280;41718;51.980;5.734;2023-04-15T14:35:37;101472.78;;;11.58;100.00
48790;BME280;41718;51.980;5.734;2023-04-15T14:40:40;101475.66;;;11.31;100.00
48790;BME280;41718;51.980;5.734;2023-04-15T14:45:42;101478.38;;;10.99;100.00
48790;BME280;41718;51.980;5.734;2023-04-15T14:50:45;101487.50;;;10.83;100.00
48790;BME280;41718;51.980;5.734;2023-04-15T14:55:47;101506.19;;;11.08;100.00
48790;BME280;41718;51.980;5.734;2023-04-15T15:00:48;101497.94;;;11.24;100.00
48790;BME280;41718;51.980;5.734;2023-04-15T15:05:50;101509.31;;;10.95;100.00
48790;BME280;41718;51.980;5.734;2023-04-15T15:10:52;101516.66;;;10.76;100.00
48790;BME280;41718;51.980;5.734;2023-04-15T15:15:53;101528.78;;;11.13;100.00
48790;BME280;41718;51.980;5.734;2023-04-15T15:20:55;101527.50;;;10.61;100.00
48790;BME280;41718;51.980;5.734;2023-04-15T15:25:57;101542.50;;;10.42;100.00
48790;BME280;41718;51.980;5.734;2023-04-15T15:30:59;101540.78;;;10.12;100.00
48790;BME280;41718;51.980;5.734;2023-04-15T15:36:03;101547.84;;;10.18;100.00
48790;BME280;41718;51.980;5.734;2023-04-15T15:41:04;101538.94;;;10.08;100.00
48790;BME280;41718;51.980;5.734;2023-04-15T15:46:06;101558.97;;;10.15;100.00
48790;BME280;41718;51.980;5.734;2023-04-15T15:51:07;101549.16;;;10.03;100.00
48790;BME280;41718;51.980;5.734;2023-04-15T15:56:09;101562.38;;;9.84;100.00
48790;BME280;41718;51.980;5.734;2023-04-15T16:01:11;101576.75;;;9.74;100.00
48790;BME280;41718;51.980;5.734;2023-04-15T16:06:12;101575.78;;;9.71;100.00
48790;BME280;41718;51.980;5.734;2023-04-15T16:11:14;101588.69;;;9.99;100.00
48790;BME280;41718;51.980;5.734;2023-04-15T16:16:15;101594.31;;;9.86;100.00
48790;BME280;41718;51.980;5.734;2023-04-15T16:21:17;101602.03;;;9.85;100.00
48790;BME280;41718;51.980;5.734;2023-04-15T16:26:20;101607.78;;;9.47;100.00
48790;BME280;41718;51.980;5.734;2023-04-15T16:31:22;101614.09;;;9.57;100.00
48790;BME280;41718;51.980;5.734;2023-04-15T16:36:23;101627.97;;;9.59;100.00
48790;BME280;41718;51.980;5.734;2023-04-15T16:41:25;101638.66;;;9.44;100.00
48790;BME280;41718;51.980;5.734;2023-04-15T16:46:26;101642.72;;;9.36;100.00
48790;BME280;41718;51.980;5.734;2023-04-15T16:51:29;101653.94;;;9.37;100.00
48790;BME280;41718;51.980;5.734;2023-04-15T16:56:32;101653.84;;;9.08;100.00
48790;BME280;41718;51.980;5.734;2023-04-15T17:01:33;101671.75;;;9.03;100.00
48790;BME280;41718;51.980;5.734;2023-04-15T17:06:35;101671.41;;;8.94;100.00
48790;BME280;41718;51.980;5.734;2023-04-15T17:11:36;101666.75;;;8.84;100.00
48790;BME280;41718;51.980;5.734;2023-04-15T17:16:41;101667.09;;;8.69;100.00
48790;BME280;41718;51.980;5.734;2023-04-15T17:21:43;101663.53;;;8.66;100.00
48790;BME280;41718;51.980;5.734;2023-04-15T17:26:44;101681.31;;;8.58;100.00
48790;BME280;41718;51.980;5.734;2023-04-15T17:31:47;101693.81;;;8.47;100.00
48790;BME280;41718;51.980;5.734;2023-04-15T17:36:48;101700.72;;;8.48;100.00
48790;BME280;41718;51.980;5.734;2023-04-15T17:41:51;101712.47;;;8.40;100.00
48790;BME280;41718;51.980;5.734;2023-04-15T17:46:53;101708.22;;;8.42;100.00
48790;BME280;41718;51.980;5.734;2023-04-15T17:51:54;101706.47;;;8.41;100.00
48790;BME280;41718;51.980;5.734;2023-04-15T17:56:56;101712.66;;;8.24;100.00
48790;BME280;41718;51.980;5.734;2023-04-15T18:01:58;101728.06;;;8.22;100.00
48790;BME280;41718;51.980;5.734;2023-04-15T18:07:00;101733.78;;;8.15;100.00
48790;BME280;41718;51.980;5.734;2023-04-15T18:12:02;101732.97;;;8.16;100.00
48790;BME280;41718;51.980;5.734;2023-04-15T18:17:04;101739.13;;;8.20;100.00
48790;BME280;41718;51.980;5.734;2023-04-15T18:22:06;101754.34;;;8.14;100.00
48790;BME280;41718;51.980;5.734;2023-04-15T18:27:07;101757.38;;;8.04;100.00
48790;BME280;41718;51.980;5.734;2023-04-15T18:32:09;101772.09;;;8.06;100.00
48790;BME280;41718;51.980;5.734;2023-04-15T18:37:11;101780.53;;;8.02;100.00
48790;BME280;41718;51.980;5.734;2023-04-15T18:42:12;101778.31;;;7.90;100.00
48790;BME280;41718;51.980;5.734;2023-04-15T18:47:16;101787.94;;;7.94;100.00
48790;BME280;41718;51.980;5.734;2023-04-15T18:52:19;101793.34;;;7.80;100.00
48790;BME280;41718;51.980;5.734;2023-04-15T18:57:22;101789.25;;;7.85;100.00
48790;BME280;41718;51.980;5.734;2023-04-15T19:02:32;101794.03;;;7.76;100.00
48790;BME280;41718;51.980;5.734;2023-04-15T19:07:36;101793.16;;;7.75;100.00
48790;BME280;41718;51.980;5.734;2023-04-15T19:12:45;101800.19;;;7.79;100.00
48790;BME280;41718;51.980;5.734;2023-04-15T19:17:50;101806.78;;;7.73;100.00
48790;BME280;41718;51.980;5.734;2023-04-15T19:22:53;101812.94;;;7.76;100.00
48790;BME280;41718;51.980;5.734;2023-04-15T19:27:57;101819.66;;;7.73;100.00
48790;BME280;41718;51.980;5.734;2023-04-15T19:33:00;101820.66;;;7.76;100.00
48790;BME280;41718;51.980;5.734;2023-04-15T19:38:02;101830.78;;;7.72;100.00
48790;BME280;41718;51.980;5.734;2023-04-15T19:43:03;101835.66;;;7.65;100.00
48790;BME280;41718;51.980;5.734;2023-04-15T19:48:06;101830.78;;;7.72;100.00
48790;BME280;41718;51.980;5.734;2023-04-15T19:53:07;101846.25;;;7.72;100.00
48790;BME280;41718;51.980;5.734;2023-04-15T19:58:09;101851.19;;;7.67;100.00
48790;BME280;41718;51.980;5.734;2023-04-15T20:03:10;101837.56;;;7.69;100.00
48790;BME280;41718;51.980;5.734;2023-04-15T20:08:13;101834.91;;;7.68;100.00
48790;BME280;41718;51.980;5.734;2023-04-15T20:13:14;101833.03;;;7.64;100.00
48790;BME280;41718;51.980;5.734;2023-04-15T20:18:16;101845.94;;;7.65;100.00
48790;BME280;41718;51.980;5.734;2023-04-15T20:23:17;101847.75;;;7.66;100.00
48790;BME280;41718;51.980;5.734;2023-04-15T20:28:22;101851.81;;;7.61;100.00
48790;BME280;41718;51.980;5.734;2023-04-15T20:33:25;101852.75;;;7.63;100.00
48790;BME280;41718;51.980;5.734;2023-04-15T20:38:27;101859.53;;;7.61;100.00
48790;BME280;41718;51.980;5.734;2023-04-15T20:43:29;101868.19;;;7.63;100.00
48790;BME280;41718;51.980;5.734;2023-04-15T20:48:30;101863.91;;;7.64;100.00
48790;BME280;41718;51.980;5.734;2023-04-15T20:53:32;101863.97;;;7.65;100.00
48790;BME280;41718;51.980;5.734;2023-04-15T20:58:33;101864.53;;;7.58;100.00
48790;BME280;41718;51.980;5.734;2023-04-15T21:03:35;101871.94;;;7.51;100.00
48790;BME280;41718;51.980;5.734;2023-04-15T21:08:36;101862.63;;;7.54;100.00
48790;BME280;41718;51.980;5.734;2023-04-15T21:13:38;101863.84;;;7.43;100.00
48790;BME280;41718;51.980;5.734;2023-04-15T21:18:39;101866.88;;;7.33;100.00
48790;BME280;41718;51.980;5.734;2023-04-15T21:23:41;101862.59;;;7.33;100.00
48790;BME280;41718;51.980;5.734;2023-04-15T21:28:42;101871.56;;;7.43;100.00
48790;BME280;41718;51.980;5.734;2023-04-15T21:33:45;101878.97;;;7.35;100.00
48790;BME280;41718;51.980;5.734;2023-04-15T21:38:47;101882.53;;;7.37;100.00
48790;BME280;41718;51.980;5.734;2023-04-15T21:43:48;101884.34;;;7.40;100.00
48790;BME280;41718;51.980;5.734;2023-04-15T21:48:51;101886.09;;;7.41;100.00
48790;BME280;41718;51.980;5.734;2023-04-15T21:53:52;101880.00;;;7.39;100.00
48790;BME280;41718;51.980;5.734;2023-04-15T21:58:55;101893.81;;;7.41;100.00
48790;BME280;41718;51.980;5.734;2023-04-15T22:03:57;101899.22;;;7.47;100.00
48790;BME280;41718;51.980;5.734;2023-04-15T22:08:58;101898.22;;;7.43;100.00
48790;BME280;41718;51.980;5.734;2023-04-15T22:14:00;101910.13;;;7.41;100.00
48790;BME280;41718;51.980;5.734;2023-04-15T22:19:02;101913.75;;;7.45;100.00
48790;BME280;41718;51.980;5.734;2023-04-15T22:24:04;101918.94;;;7.47;100.00
48790;BME280;41718;51.980;5.734;2023-04-15T22:29:25;101919.97;;;7.50;100.00
48790;BME280;41718;51.980;5.734;2023-04-15T22:34:27;101925.84;;;7.48;100.00
48790;BME280;41718;51.980;5.734;2023-04-15T22:39:28;101932.97;;;7.53;100.00
48790;BME280;41718;51.980;5.734;2023-04-15T22:44:30;101927.91;;;7.55;100.00
48790;BME280;41718;51.980;5.734;2023-04-15T22:49:31;101929.56;;;7.54;100.00
48790;BME280;41718;51.980;5.734;2023-04-15T22:54:35;101937.41;;;7.56;100.00
48790;BME280;41718;51.980;5.734;2023-04-15T22:59:36;101931.44;;;7.57;100.00
48790;BME280;41718;51.980;5.734;2023-04-15T23:04:38;101928.84;;;7.57;100.00
48790;BME280;41718;51.980;5.734;2023-04-15T23:09:39;101941.94;;;7.61;100.00
48790;BME280;41718;51.980;5.734;2023-04-15T23:14:41;101944.50;;;7.61;100.00
48790;BME280;41718;51.980;5.734;2023-04-15T23:19:42;101941.84;;;7.60;100.00
48790;BME280;41718;51.980;5.734;2023-04-15T23:24:44;101954.06;;;7.64;100.00
48790;BME280;41718;51.980;5.734;2023-04-15T23:29:46;101955.75;;;7.63;100.00
48790;BME280;41718;51.980;5.734;2023-04-15T23:34:47;101960.16;;;7.66;100.00
48790;BME280;41718;51.980;5.734;2023-04-15T23:39:49;101965.38;;;7.67;100.00
48790;BME280;41718;51.980;5.734;2023-04-15T23:44:50;101963.91;;;7.73;100.00
48790;BME280;41718;51.980;5.734;2023-04-15T23:49:52;101974.94;;;7.70;100.00
48790;BME280;41718;51.980;5.734;2023-04-15T23:54:53;101968.91;;;7.69;100.00
48790;BME280;41718;51.980;5.734;2023-04-15T23:59:55;101978.31;;;7.69;100.00
